createdAt,value
2019-05-12T00:02:14.382Z,19.70
2019-05-12T00:04:44.749Z,17.90
2019-05-12T00:07:15.238Z,17.23
2019-05-12T00:09:47.449Z,15.97
2019-05-12T00:12:18.269Z,15.90
2019-05-12T00:14:48.532Z,18.67
2019-05-12T00:17:18.734Z,19.70
2019-05-12T00:19:47.955Z,16.87
2019-05-12T00:22:18.165Z,18.20
2019-05-12T00:24:48.330Z,17.00
2019-05-12T00:27:19.467Z,19.93
2019-05-12T00:29:49.807Z,17.80
2019-05-12T00:32:20.408Z,17.53
2019-05-12T00:34:50.766Z,19.53
2019-05-12T00:37:21.675Z,19.33
2019-05-12T00:39:52.185Z,19.50
2019-05-12T00:42:22.456Z,19.90
2019-05-12T00:44:52.875Z,20.90
2019-05-12T00:47:23.380Z,22.00
2019-05-12T00:49:53.667Z,23.63
2019-05-12T00:52:24.161Z,22.83
2019-05-12T00:54:54.595Z,20.83
2019-05-12T00:57:24.984Z,21.97
2019-05-12T00:59:55.408Z,21.70
2019-05-12T01:02:25.219Z,21.97
2019-05-12T01:04:58.039Z,24.20
2019-05-12T01:07:27.735Z,20.50
2019-05-12T01:09:58.061Z,20.27
2019-05-12T01:12:28.499Z,20.67
2019-05-12T01:14:58.534Z,22.30
2019-05-12T01:17:28.248Z,21.73
2019-05-12T01:19:58.396Z,21.03
2019-05-12T01:22:28.451Z,19.40
2019-05-12T01:24:59.020Z,23.47
2019-05-12T01:27:29.387Z,22.33
2019-05-12T01:29:59.950Z,22.30
2019-05-12T01:32:33.531Z,21.83
2019-05-12T01:35:04.181Z,20.67
2019-05-12T01:37:34.606Z,22.20
2019-05-12T01:40:05.168Z,19.27
2019-05-12T01:42:38.012Z,20.53
2019-05-12T01:45:08.964Z,22.17
2019-05-12T01:47:38.241Z,20.70
2019-05-12T01:50:09.167Z,22.47
2019-05-12T01:52:38.572Z,24.00
2019-05-12T01:55:08.925Z,21.20
2019-05-12T01:57:39.259Z,24.03
2019-05-12T02:00:11.633Z,22.10
2019-05-12T02:02:42.438Z,25.00
2019-05-12T02:05:13.171Z,23.10
2019-05-12T02:07:48.823Z,23.60
2019-05-12T02:10:19.475Z,23.60
2019-05-12T02:12:50.085Z,20.70
2019-05-12T02:15:20.919Z,23.00
2019-05-12T02:17:51.436Z,23.60
2019-05-12T02:20:22.182Z,23.67
2019-05-12T02:22:52.504Z,22.90
2019-05-12T02:25:23.054Z,21.43
2019-05-12T02:27:53.463Z,24.57
2019-05-12T02:30:24.111Z,22.70
2019-05-12T02:32:58.765Z,22.73
2019-05-12T02:35:25.057Z,22.07
2019-05-12T02:37:55.604Z,21.27
2019-05-12T02:40:26.133Z,22.67
2019-05-12T02:42:56.509Z,23.33
2019-05-12T02:45:27.076Z,20.70
2019-05-12T02:47:57.517Z,19.70
2019-05-12T02:50:35.315Z,17.67
2019-05-12T02:53:05.231Z,18.27
2019-05-12T02:55:35.360Z,15.63
2019-05-12T02:58:06.109Z,16.60
2019-05-12T03:00:36.311Z,16.10
2019-05-12T03:03:06.806Z,15.97
2019-05-12T03:05:37.517Z,16.70
2019-05-12T03:08:07.927Z,15.00
2019-05-12T03:10:38.508Z,15.50
2019-05-12T03:13:09.003Z,12.03
2019-05-12T03:15:39.356Z,13.87
2019-05-12T03:18:09.760Z,14.40
2019-05-12T03:20:40.212Z,12.43
2019-05-12T03:23:10.700Z,13.30
2019-05-12T03:25:40.547Z,15.37
2019-05-12T03:28:10.983Z,14.27
2019-05-12T03:30:41.445Z,14.23
2019-05-12T03:33:18.315Z,12.53
2019-05-12T03:35:50.729Z,14.80
2019-05-12T03:38:14.913Z,13.50
2019-05-12T03:40:45.067Z,10.37
2019-05-12T03:43:14.773Z,9.83
2019-05-12T03:45:45.195Z,11.83
2019-05-12T03:48:15.323Z,9.87
2019-05-12T03:50:46.314Z,10.70
2019-05-12T03:53:16.260Z,13.77
2019-05-12T03:55:47.313Z,12.33
2019-05-12T03:58:17.109Z,13.30
2019-05-12T04:00:47.666Z,13.43
2019-05-12T04:03:18.064Z,13.23
2019-05-12T04:05:48.496Z,16.37
2019-05-12T04:08:19.130Z,15.87
2019-05-12T04:10:49.561Z,14.10
2019-05-12T04:13:20.164Z,16.77
2019-05-12T04:15:50.716Z,13.97
2019-05-12T04:18:24.538Z,16.30
2019-05-12T04:20:54.538Z,16.87
2019-05-12T04:23:24.743Z,16.47
2019-05-12T04:26:06.587Z,14.83
2019-05-12T04:28:24.575Z,13.60
2019-05-12T04:30:54.551Z,9.83
2019-05-12T04:33:25.704Z,12.30
2019-05-12T04:35:55.467Z,15.07
2019-05-12T04:38:25.344Z,11.37
2019-05-12T04:40:56.101Z,9.77
2019-05-12T04:43:26.642Z,10.67
2019-05-12T04:45:57.171Z,10.90
2019-05-12T04:48:27.696Z,11.53
2019-05-12T04:50:58.461Z,12.60
2019-05-12T04:53:28.896Z,11.77
2019-05-12T04:56:10.548Z,13.87
2019-05-12T04:58:30.189Z,17.40
2019-05-12T05:01:00.791Z,16.13
2019-05-12T05:03:31.255Z,14.10
2019-05-12T05:06:04.290Z,12.87
2019-05-12T05:08:34.649Z,11.63
2019-05-12T05:11:04.040Z,6.67
2019-05-12T05:13:36.782Z,7.93
2019-05-12T05:16:05.404Z,9.20
2019-05-12T05:18:34.470Z,6.83
2019-05-12T05:21:04.797Z,9.83
2019-05-12T05:23:35.092Z,5.70
2019-05-12T05:26:19.803Z,6.30
2019-05-12T05:28:36.227Z,7.37
2019-05-12T05:31:06.689Z,8.30
2019-05-12T05:33:37.225Z,9.67
2019-05-12T05:36:08.913Z,5.37
2019-05-12T05:38:38.163Z,7.80
2019-05-12T05:41:10.541Z,8.50
2019-05-12T05:43:39.025Z,11.13
2019-05-12T05:46:09.696Z,10.77
2019-05-12T05:48:40.288Z,7.47
2019-05-12T05:51:10.828Z,10.37
2019-05-12T05:53:41.260Z,8.03
2019-05-12T05:56:14.228Z,8.70
2019-05-12T05:58:49.576Z,7.03
2019-05-12T06:01:13.785Z,7.10
2019-05-12T06:03:44.177Z,7.03
2019-05-12T06:06:15.426Z,8.33
2019-05-12T06:08:48.604Z,5.80
2019-05-12T06:11:23.902Z,6.50
2019-05-12T06:13:49.547Z,6.07
2019-05-12T06:16:22.039Z,6.77
2019-05-12T06:18:50.309Z,7.60
2019-05-12T06:21:20.960Z,8.00
2019-05-12T06:23:51.320Z,6.03
2019-05-12T06:26:30.950Z,5.97
2019-05-12T06:28:55.939Z,5.30
2019-05-12T06:31:25.094Z,7.57
2019-05-12T06:33:53.805Z,5.30
2019-05-12T06:36:27.233Z,6.23
2019-05-12T06:38:54.724Z,5.37
2019-05-12T06:41:25.933Z,5.30
2019-05-12T06:43:55.471Z,5.50
2019-05-12T06:46:26.025Z,6.17
2019-05-12T06:49:00.755Z,6.30
2019-05-12T06:51:27.325Z,6.23
2019-05-12T06:54:00.818Z,6.17
2019-05-12T06:56:28.139Z,4.77
2019-05-12T06:59:01.012Z,5.00
2019-05-12T07:01:28.918Z,5.03
2019-05-12T07:04:00.616Z,4.67
2019-05-12T07:06:29.641Z,4.77
2019-05-12T07:09:06.448Z,3.97
2019-05-12T07:11:41.697Z,5.50
2019-05-12T07:14:07.322Z,26.40
2019-05-12T07:16:33.926Z,14.80
2019-05-12T07:19:07.552Z,9.33
2019-05-12T07:21:33.812Z,7.67
2019-05-12T07:24:09.110Z,4.80
2019-05-12T07:26:34.711Z,4.90
2019-05-12T07:29:10.731Z,4.20
2019-05-12T07:31:41.309Z,4.97
2019-05-12T07:34:13.639Z,4.13
2019-05-12T07:36:44.300Z,5.13
2019-05-12T07:39:13.612Z,3.40
2019-05-12T07:41:50.905Z,4.90
2019-05-12T07:44:15.105Z,3.40
2019-05-12T07:46:49.484Z,3.07
2019-05-12T07:49:16.160Z,3.37
2019-05-12T07:51:49.942Z,3.00
2019-05-12T07:54:17.348Z,3.30
2019-05-12T07:56:47.739Z,3.30
2019-05-12T07:59:18.084Z,4.03
2019-05-12T08:01:51.880Z,3.10
2019-05-12T08:04:18.898Z,3.10
2019-05-12T08:06:49.770Z,3.03
2019-05-12T08:09:24.169Z,3.33
2019-05-12T08:11:49.951Z,6.73
2019-05-12T08:14:25.801Z,5.10
2019-05-12T08:16:50.948Z,3.33
2019-05-12T08:22:13.582Z,4.17
2019-05-12T08:24:47.324Z,3.73
2019-05-12T08:27:14.334Z,3.53
2019-05-12T08:29:44.028Z,4.37
2019-05-12T08:32:15.934Z,4.17
2019-05-12T08:34:45.071Z,4.33
2019-05-12T08:37:15.519Z,4.17
2019-05-12T08:39:45.793Z,6.70
2019-05-12T08:42:16.372Z,6.10
2019-05-12T08:44:46.715Z,4.57
2019-05-12T08:47:17.223Z,5.63
2019-05-12T08:49:55.142Z,3.87
2019-05-12T08:52:18.483Z,4.37
2019-05-12T08:54:49.539Z,7.70
2019-05-12T08:57:19.433Z,5.07
2019-05-12T08:59:56.752Z,7.00
2019-05-12T09:02:20.399Z,6.90
2019-05-12T09:04:51.782Z,5.60
2019-05-12T09:07:21.457Z,4.23
2019-05-12T09:09:53.393Z,5.37
2019-05-12T09:12:23.293Z,4.60
2019-05-12T09:14:54.594Z,5.03
2019-05-12T09:17:23.334Z,14.10
2019-05-12T09:19:55.092Z,4.57
2019-05-12T09:22:24.226Z,3.37
2019-05-12T09:24:58.329Z,3.83
2019-05-12T09:27:25.371Z,5.97
2019-05-12T09:29:59.126Z,6.03
2019-05-12T09:32:26.234Z,13.17
2019-05-12T09:34:58.271Z,8.50
2019-05-12T09:37:30.976Z,11.47
2019-05-12T09:39:56.787Z,4.97
2019-05-12T09:42:29.976Z,5.10
2019-05-12T09:44:59.982Z,6.07
2019-05-12T09:47:27.765Z,4.60
2019-05-12T09:49:57.897Z,4.17
2019-05-12T09:52:28.482Z,4.57
2019-05-12T09:54:58.295Z,4.83
2019-05-12T09:57:34.699Z,3.40
2019-05-12T10:00:06.557Z,4.83
2019-05-12T10:02:36.947Z,5.50
2019-05-12T10:05:07.772Z,4.43
2019-05-12T10:07:38.089Z,4.27
2019-05-12T10:10:08.800Z,6.37
2019-05-12T10:12:46.242Z,5.20
2019-05-12T10:15:10.027Z,9.30
2019-05-12T10:17:40.351Z,7.17
2019-05-12T10:20:11.101Z,9.13
2019-05-12T10:22:43.524Z,8.73
2019-05-12T10:25:14.189Z,5.77
2019-05-12T10:27:44.268Z,4.90
2019-05-12T10:30:17.024Z,4.77
2019-05-12T10:32:43.781Z,5.63
2019-05-12T10:35:20.845Z,4.70
2019-05-12T10:37:47.284Z,7.07
2019-05-12T10:40:15.733Z,7.03
2019-05-12T10:42:49.539Z,5.30
2019-05-12T10:45:20.368Z,6.53
2019-05-12T10:47:47.416Z,7.67
2019-05-12T10:50:17.946Z,4.23
2019-05-12T10:52:48.772Z,7.37
2019-05-12T10:55:19.437Z,7.97
2019-05-12T10:57:53.024Z,6.70
2019-05-12T11:00:25.073Z,12.90
2019-05-12T11:02:53.361Z,8.73
2019-05-12T11:05:23.303Z,6.93
2019-05-12T11:07:53.878Z,3.97
2019-05-12T11:10:23.323Z,4.73
2019-05-12T11:12:52.834Z,4.03
2019-05-12T11:15:24.551Z,4.60
2019-05-12T11:17:58.459Z,3.03
2019-05-12T11:20:28.898Z,5.50
2019-05-12T11:22:59.284Z,5.57
2019-05-12T11:25:29.508Z,5.70
2019-05-12T11:27:59.935Z,6.43
2019-05-12T11:30:30.060Z,2.97
2019-05-12T11:32:59.952Z,3.97
2019-05-12T11:35:30.293Z,7.30
2019-05-12T11:38:04.558Z,6.17
2019-05-12T11:40:34.659Z,6.03
2019-05-12T11:43:04.249Z,4.77
2019-05-12T11:45:33.970Z,5.00
2019-05-12T11:48:09.954Z,3.80
2019-05-12T11:50:34.850Z,5.00
2019-05-12T11:53:05.653Z,5.07
2019-05-12T11:55:36.338Z,5.03
2019-05-12T11:58:11.389Z,7.00
2019-05-12T12:00:37.574Z,6.53
2019-05-12T12:03:17.867Z,5.80
2019-05-12T12:05:38.615Z,4.03
2019-05-12T12:08:08.229Z,4.83
2019-05-12T12:10:39.986Z,5.67
2019-05-12T12:13:08.980Z,4.97
2019-05-12T12:15:39.379Z,4.87
2019-05-12T12:18:14.930Z,13.53
2019-05-12T12:20:40.015Z,5.67
2019-05-12T12:23:11.299Z,4.27
2019-05-12T12:25:42.975Z,3.90
2019-05-12T12:28:10.593Z,3.13
2019-05-12T12:30:41.099Z,5.07
2019-05-12T12:33:14.109Z,4.47
2019-05-12T12:35:44.525Z,3.33
2019-05-12T12:38:14.093Z,7.43
2019-05-12T12:40:44.142Z,7.30
2019-05-12T12:43:14.948Z,7.70
2019-05-12T12:45:50.017Z,5.43
2019-05-12T12:48:25.500Z,4.40
2019-05-12T12:50:50.095Z,10.30
2019-05-12T12:53:20.981Z,8.77
2019-05-12T12:55:53.565Z,17.20
2019-05-12T12:58:28.337Z,9.23
2019-05-12T13:00:56.252Z,6.13
2019-05-12T13:03:25.695Z,4.60
2019-05-12T13:05:54.300Z,4.43
2019-05-12T13:08:24.662Z,5.00
2019-05-12T13:10:54.552Z,6.03
2019-05-12T13:13:24.916Z,3.83
2019-05-12T13:15:55.321Z,3.30
2019-05-12T13:18:32.683Z,6.03
2019-05-12T13:20:57.987Z,2.73
2019-05-12T13:23:37.286Z,3.57
2019-05-12T13:25:57.311Z,3.90
2019-05-12T13:28:27.801Z,2.90
2019-05-12T13:31:08.322Z,5.33
2019-05-12T13:33:28.891Z,4.60
2019-05-12T13:35:59.334Z,3.67
2019-05-12T13:38:30.370Z,10.83
2019-05-12T13:41:00.309Z,8.50
2019-05-12T13:43:30.767Z,5.67
2019-05-12T13:46:01.263Z,9.93
2019-05-12T13:48:31.601Z,4.87
2019-05-12T13:51:10.410Z,7.40
2019-05-12T13:53:33.514Z,4.93
2019-05-12T13:56:04.848Z,3.30
2019-05-12T13:58:40.316Z,4.30
2019-05-12T14:01:19.086Z,5.20
2019-05-12T14:03:34.801Z,3.70
2019-05-12T14:06:05.396Z,4.70
2019-05-12T14:08:35.788Z,3.93
2019-05-12T14:11:06.196Z,5.47
2019-05-12T14:13:36.473Z,5.70
2019-05-12T14:16:07.092Z,10.80
2019-05-12T14:18:37.235Z,6.53
2019-05-12T14:21:07.604Z,5.47
2019-05-12T14:23:37.954Z,4.73
2019-05-12T14:26:09.429Z,6.50
2019-05-12T14:28:39.586Z,7.13
2019-05-12T14:31:22.738Z,6.87
2019-05-12T14:33:39.560Z,6.10
2019-05-12T14:36:13.619Z,4.30
2019-05-12T14:38:40.257Z,5.83
2019-05-12T14:41:12.354Z,4.90
2019-05-12T14:43:40.406Z,5.73
2019-05-12T14:46:10.676Z,8.87
2019-05-12T14:48:46.473Z,6.87
2019-05-12T14:51:13.962Z,8.23
2019-05-12T14:53:44.368Z,10.37
2019-05-12T14:56:14.060Z,7.40
2019-05-12T14:58:44.207Z,4.77
2019-05-12T15:01:14.268Z,5.73
2019-05-12T15:03:47.728Z,6.13
2019-05-12T15:06:14.338Z,5.53
2019-05-12T15:08:45.661Z,5.83
2019-05-12T15:11:16.158Z,4.50
2019-05-12T15:13:46.432Z,6.03
2019-05-12T15:16:16.672Z,7.57
2019-05-12T15:18:48.958Z,7.80
2019-05-12T15:21:21.381Z,5.40
2019-05-12T15:23:47.937Z,5.60
2019-05-12T15:26:19.774Z,4.83
2019-05-12T15:28:48.653Z,5.17
2019-05-12T15:31:19.266Z,7.43
2019-05-12T15:33:49.585Z,9.10
2019-05-12T15:36:20.089Z,14.67
2019-05-12T15:38:55.816Z,17.67
2019-05-12T15:41:23.703Z,17.00
2019-05-12T15:43:53.638Z,12.50
2019-05-12T15:46:24.537Z,8.40
2019-05-12T15:48:53.505Z,8.37
2019-05-12T15:51:23.983Z,6.07
2019-05-12T15:53:59.554Z,5.97
2019-05-12T15:56:26.283Z,6.43
2019-05-12T15:58:55.859Z,4.23
2019-05-12T16:01:25.747Z,3.50
2019-05-12T16:03:56.163Z,11.57
2019-05-12T16:06:26.560Z,9.43
2019-05-12T16:08:56.959Z,13.07
2019-05-12T16:11:27.392Z,6.93
2019-05-12T16:13:59.404Z,5.90
2019-05-12T16:16:28.065Z,8.33
2019-05-12T16:18:58.399Z,7.67
2019-05-12T16:21:28.823Z,5.23
2019-05-12T16:24:03.026Z,9.23
2019-05-12T16:26:29.640Z,6.07
2019-05-12T16:29:03.136Z,6.63
2019-05-12T16:31:30.523Z,3.40
2019-05-12T16:34:05.469Z,4.77
2019-05-12T16:36:33.568Z,4.37
2019-05-12T16:39:03.564Z,3.73
2019-05-12T16:41:34.385Z,5.60
2019-05-12T16:44:07.852Z,4.10
2019-05-12T16:46:34.014Z,6.20
2019-05-12T16:49:04.255Z,9.90
2019-05-12T16:51:35.142Z,6.37
2019-05-12T16:54:05.607Z,6.40
2019-05-12T16:56:35.564Z,7.23
2019-05-12T16:59:15.340Z,6.80
2019-05-12T17:01:36.533Z,5.73
2019-05-12T17:04:06.837Z,6.70
2019-05-12T17:06:38.561Z,6.27
2019-05-12T17:09:08.551Z,6.93
2019-05-12T17:11:47.161Z,5.13
2019-05-12T17:14:09.501Z,6.27
2019-05-12T17:16:46.492Z,9.20
2019-05-12T17:19:10.747Z,8.57
2019-05-12T17:21:40.673Z,9.43
2019-05-12T17:24:11.048Z,6.33
2019-05-12T17:26:43.840Z,11.23
2019-05-12T17:29:13.709Z,10.47
2019-05-12T17:31:44.238Z,12.17
2019-05-12T17:34:14.282Z,11.13
2019-05-12T17:36:44.843Z,10.27
2019-05-12T17:39:13.929Z,7.20
2019-05-12T17:41:45.685Z,7.23
2019-05-12T17:44:15.518Z,8.60
2019-05-12T17:46:46.051Z,8.00
2019-05-12T17:49:25.636Z,6.20
2019-05-12T17:52:11.941Z,11.90
2019-05-12T17:54:36.456Z,17.77
2019-05-12T17:57:09.439Z,16.90
2019-05-12T17:59:37.318Z,22.50
2019-05-12T18:02:14.983Z,27.57
2019-05-12T18:04:37.516Z,16.83
2019-05-12T18:07:13.288Z,11.33
2019-05-12T18:09:38.388Z,11.67
2019-05-12T18:12:08.754Z,13.00
2019-05-12T18:14:46.767Z,10.00
2019-05-12T18:17:09.541Z,9.07
2019-05-12T18:19:39.864Z,6.40
2019-05-12T18:22:10.262Z,8.07
2019-05-12T18:24:40.899Z,8.10
2019-05-12T18:27:13.469Z,7.77
2019-05-12T18:29:43.977Z,6.13
2019-05-12T18:32:13.848Z,6.77
2019-05-12T18:34:44.309Z,6.67
2019-05-12T18:37:13.635Z,9.20
2019-05-12T18:39:43.735Z,6.60
2019-05-12T18:42:13.935Z,6.37
2019-05-12T18:44:43.981Z,8.03
2019-05-12T18:47:16.801Z,9.63
2019-05-12T18:49:48.013Z,9.17
2019-05-12T18:52:15.144Z,9.37
2019-05-12T18:54:52.076Z,10.97
2019-05-12T18:57:15.931Z,11.80
2019-05-12T18:59:54.388Z,12.37
2019-05-12T19:02:23.508Z,15.13
2019-05-12T19:04:47.164Z,18.27
2019-05-12T19:07:17.500Z,12.57
2019-05-12T19:09:47.836Z,12.70
2019-05-12T19:12:22.517Z,11.70
2019-05-12T19:14:51.746Z,12.03
2019-05-12T19:17:19.179Z,12.23
2019-05-12T19:19:53.975Z,15.00
2019-05-12T19:22:19.962Z,15.83
2019-05-12T19:24:55.374Z,13.47
2019-05-12T19:27:20.944Z,11.53
2019-05-12T19:29:50.841Z,11.43
2019-05-12T19:32:21.163Z,11.33
2019-05-12T19:34:54.464Z,10.80
2019-05-12T19:37:26.430Z,14.60
2019-05-12T19:39:53.834Z,9.20
2019-05-12T19:42:24.434Z,7.20
2019-05-12T19:44:56.642Z,12.90
2019-05-12T19:47:33.562Z,13.97
2019-05-12T19:49:59.566Z,9.47
2019-05-12T19:52:25.143Z,10.07
2019-05-12T19:54:55.637Z,9.27
2019-05-12T19:57:26.339Z,9.10
2019-05-12T19:59:56.784Z,7.63
2019-05-12T20:02:27.281Z,6.80
2019-05-12T20:04:57.655Z,6.00
2019-05-12T20:07:27.962Z,6.93
2019-05-12T20:10:00.515Z,6.97
2019-05-12T20:12:29.028Z,7.73
2019-05-12T20:14:59.460Z,11.47
2019-05-12T20:17:29.762Z,9.40
2019-05-12T20:20:00.162Z,9.93
2019-05-12T20:22:30.297Z,10.50
2019-05-12T20:25:00.530Z,14.10
2019-05-12T20:27:30.774Z,13.13
2019-05-12T20:30:01.111Z,12.67
2019-05-12T20:32:31.412Z,9.97
2019-05-12T20:35:04.057Z,8.87
2019-05-12T20:37:33.691Z,10.07
2019-05-12T20:40:05.357Z,9.23
2019-05-12T20:42:41.899Z,8.73
2019-05-12T20:45:05.336Z,9.77
2019-05-12T20:47:33.909Z,6.93
2019-05-12T20:50:04.480Z,6.60
2019-05-12T20:52:39.274Z,10.63
2019-05-12T20:55:05.855Z,9.10
2019-05-12T20:57:40.162Z,10.30
2019-05-12T21:00:08.628Z,9.67
2019-05-12T21:02:37.755Z,9.67
2019-05-12T21:05:14.831Z,9.33
2019-05-12T21:07:39.012Z,12.47
2019-05-12T21:10:09.624Z,10.03
2019-05-12T21:12:39.977Z,12.90
2019-05-12T21:15:16.332Z,14.30
2019-05-12T21:17:43.511Z,12.73
2019-05-12T21:20:14.373Z,12.17
2019-05-12T21:22:43.420Z,12.43
2019-05-12T21:25:12.822Z,9.00
2019-05-12T21:27:44.773Z,8.63
2019-05-12T21:30:15.163Z,9.60
2019-05-12T21:32:47.384Z,5.40
2019-05-12T21:35:21.882Z,8.47
2019-05-12T21:37:46.581Z,6.50
2019-05-12T21:40:15.232Z,6.93
2019-05-12T21:42:45.687Z,6.83
2019-05-12T21:45:20.127Z,6.87
2019-05-12T21:47:46.828Z,8.73
2019-05-12T21:50:17.385Z,4.97
2019-05-12T21:52:48.000Z,6.77
2019-05-12T21:55:21.638Z,5.43
2019-05-12T21:57:48.816Z,9.13
2019-05-12T22:00:24.378Z,5.70
2019-05-12T22:02:56.540Z,7.30
2019-05-12T22:05:46.971Z,6.27
2019-05-12T22:07:55.619Z,6.43
2019-05-12T22:10:30.638Z,4.90
2019-05-12T22:13:00.587Z,8.43
2019-05-12T22:15:28.776Z,7.77
2019-05-12T22:18:03.984Z,7.43
2019-05-12T22:20:31.346Z,7.20
2019-05-12T22:23:07.101Z,7.73
2019-05-12T22:25:34.509Z,8.70
2019-05-12T22:28:08.049Z,5.40
2019-05-12T22:30:34.893Z,7.23
2019-05-12T22:33:08.667Z,7.83
2019-05-12T22:35:34.764Z,7.93
2019-05-12T22:38:15.307Z,7.50
2019-05-12T22:40:35.548Z,7.93
2019-05-12T22:43:07.161Z,8.33
2019-05-12T22:45:44.239Z,9.17
2019-05-12T22:48:07.311Z,6.97
2019-05-12T22:50:37.799Z,7.20
2019-05-12T22:53:08.169Z,8.77
2019-05-12T22:55:38.593Z,9.37
2019-05-12T22:58:10.942Z,11.13
2019-05-12T23:00:39.651Z,7.87
2019-05-12T23:03:11.972Z,7.50
2019-05-12T23:05:39.982Z,8.43
2019-05-12T23:08:10.521Z,7.70
2019-05-12T23:10:41.671Z,8.70
2019-05-12T23:13:13.412Z,9.40
2019-05-12T23:15:47.494Z,8.80
2019-05-12T23:18:11.534Z,8.50
2019-05-12T23:20:43.893Z,7.03
2019-05-12T23:23:15.468Z,7.27
2019-05-12T23:25:44.095Z,6.40
2019-05-12T23:28:12.292Z,9.10
2019-05-12T23:30:43.881Z,8.50
2019-05-12T23:33:14.117Z,8.37
2019-05-12T23:35:44.338Z,6.30
2019-05-12T23:38:18.713Z,8.60
2019-05-12T23:40:44.150Z,8.10
2019-05-12T23:43:14.761Z,7.37
2019-05-12T23:45:45.416Z,8.83
2019-05-12T23:48:15.821Z,7.37
2019-05-12T23:50:46.154Z,8.63
2019-05-12T23:53:16.560Z,6.93
2019-05-12T23:55:47.053Z,5.67
2019-05-12T23:58:17.328Z,9.10
